Time;durP1;ratioP1;P1;durP2;ratioP2;P2;SDS_P1;SDS_P2;PMS_P1;PMS_P2;Temp;Humidity;BMP_temperature;BMP_pressure;BME280_temperature;BME280_humidity;BME280_pressure;Samples;Min_cycle;Max_cycle;Signal;HPM_P1;HPM_P2
2023/07/21 00:01:28;;;;;;;0.32;0.32;;;;;;;15.91;66.25;97190.34;5051482;28;20048;-77
2023/07/21 00:03:57;;;;;;;0.35;0.35;;;;;;;15.69;67.28;97200.94;5069821;28;20115;-74
2023/07/21 00:06:26;;;;;;;0.25;0.25;;;;;;;15.72;66.88;97193.22;5068753;28;20044;-74
2023/07/21 00:08:54;;;;;;;0.30;0.30;;;;;;;15.72;66.63;97203.97;5053785;28;20044;-73
2023/07/21 00:11:22;;;;;;;0.28;0.28;;;;;;;15.89;66.37;97192.47;5071380;28;20091;-73
2023/07/21 00:13:50;;;;;;;0.30;0.30;;;;;;;15.93;65.67;97188.25;5070914;28;20047;-74
2023/07/21 00:16:18;;;;;;;0.40;0.40;;;;;;;15.81;66.22;97190.97;5070293;28;20059;-76
2023/07/21 00:18:48;;;;;;;0.32;0.32;;;;;;;15.83;66.28;97179.97;5069429;28;20048;-76
2023/07/21 00:21:17;;;;;;;0.25;0.25;;;;;;;15.80;66.32;97183.94;5069880;28;20068;-74
2023/07/21 00:23:46;;;;;;;0.10;0.10;;;;;;;15.70;66.53;97183.75;5067829;28;20124;-74
2023/07/21 00:26:15;;;;;;;0.20;0.20;;;;;;;15.61;66.95;97179.78;5069914;28;20041;-74
2023/07/21 00:28:43;;;;;;;0.30;0.30;;;;;;;15.46;67.46;97180.25;5067948;28;20051;-73
2023/07/21 00:31:11;;;;;;;0.40;0.40;;;;;;;15.45;67.68;97183.19;5051282;28;20064;-73
2023/07/21 00:33:39;;;;;;;0.25;0.25;;;;;;;15.45;67.60;97177.81;5051123;28;20113;-73
2023/07/21 00:36:07;;;;;;;0.13;0.13;;;;;;;15.38;68.15;97172.53;5070093;28;21511;-73
2023/07/21 00:38:36;;;;;;;0.03;0.03;;;;;;;15.32;68.36;97181.53;5069369;28;20390;-73
2023/07/21 00:41:04;;;;;;;0.30;0.30;;;;;;;15.22;68.59;97173.25;5051065;28;20041;-73
2023/07/21 00:43:31;;;;;;;0.20;0.20;;;;;;;15.21;68.71;97174.28;5050507;28;20044;-73
2023/07/21 00:45:59;;;;;;;0.20;0.20;;;;;;;15.03;69.44;97178.75;5050872;28;20051;-72
2023/07/21 00:48:27;;;;;;;0.20;0.20;;;;;;;15.15;68.88;97170.69;5052105;28;20513;-73
2023/07/21 00:50:55;;;;;;;0.43;0.43;;;;;;;15.04;69.39;97182.25;5051057;28;20048;-74
2023/07/21 00:53:24;;;;;;;0.30;0.30;;;;;;;14.54;70.89;97174.56;5046854;28;20056;-75
2023/07/21 00:55:53;;;;;;;0.20;0.20;;;;;;;14.50;70.93;97167.22;5068676;28;20046;-74
2023/07/21 00:58:22;;;;;;;0.30;0.30;;;;;;;14.67;70.89;97165.50;5048987;28;20040;-73
2023/07/21 01:00:49;;;;;;;0.20;0.20;;;;;;;14.90;69.75;97165.53;5066746;28;20064;-75
2023/07/21 01:03:18;;;;;;;0.20;0.20;;;;;;;15.14;68.79;97166.38;5049922;28;20036;-75
2023/07/21 01:05:49;;;;;;;0.35;0.35;;;;;;;15.13;69.06;97156.66;5050800;28;20178;-74
2023/07/21 01:08:17;;;;;;;0.30;0.30;;;;;;;14.91;69.72;97158.28;5049375;28;20055;-76
2023/07/21 01:10:45;;;;;;;0.25;0.25;;;;;;;14.90;69.53;97153.97;5069797;28;20059;-75
2023/07/21 01:13:16;;;;;;;0.40;0.40;;;;;;;14.67;70.29;97144.81;5067821;28;20036;-74
2023/07/21 01:15:47;;;;;;;0.32;0.32;;;;;;;14.69;69.93;97149.97;5070487;28;20493;-73
2023/07/21 01:18:16;;;;;;;0.35;0.35;;;;;;;14.83;69.63;97148.72;5051665;28;20094;-74
2023/07/21 01:20:45;;;;;;;0.30;0.30;;;;;;;14.83;69.29;97142.50;5075099;28;20037;-74
2023/07/21 01:23:21;;;;;;;0.30;0.30;;;;;;;14.98;69.11;97132.91;5068986;28;20064;-74
2023/07/21 01:25:51;;;;;;;0.30;0.30;;;;;;;15.07;68.44;97131.50;5072078;28;20134;-73
2023/07/21 01:28:19;;;;;;;0.30;0.30;;;;;;;15.09;68.65;97127.78;5051333;28;20100;-73
2023/07/21 01:30:48;;;;;;;0.28;0.28;;;;;;;15.06;68.42;97134.44;5069100;28;20048;-74
2023/07/21 01:33:18;;;;;;;0.25;0.25;;;;;;;15.10;68.30;97126.72;5068394;28;20481;-75
2023/07/21 01:35:48;;;;;;;0.30;0.30;;;;;;;14.98;68.52;97121.34;5047825;28;20053;-73
2023/07/21 01:38:16;;;;;;;0.38;0.38;;;;;;;15.00;68.56;97122.75;5050042;28;20052;-73
2023/07/21 01:40:45;;;;;;;0.30;0.30;;;;;;;14.94;68.74;97123.72;5068300;28;20050;-73
2023/07/21 01:43:14;;;;;;;0.22;0.22;;;;;;;15.12;69.08;97124.63;5050138;28;20051;-75
2023/07/21 01:45:43;;;;;;;0.43;0.43;;;;;;;15.21;69.02;97115.97;5052030;28;20056;-75
2023/07/21 01:48:10;;;;;;;0.28;0.28;;;;;;;15.26;68.95;97120.66;5072644;28;20056;-75
2023/07/21 01:50:40;;;;;;;0.17;0.17;;;;;;;15.26;68.88;97116.06;5053782;28;20037;-75
2023/07/21 01:53:13;;;;;;;0.20;0.20;;;;;;;15.38;68.14;97111.50;5072321;28;20037;-75
2023/07/21 01:55:44;;;;;;;0.13;0.13;;;;;;;15.18;68.38;97112.91;5053790;28;20565;-75
2023/07/21 01:58:13;;;;;;;0.30;0.30;;;;;;;15.10;68.58;97105.22;5054795;28;20443;-74
2023/07/21 02:00:43;;;;;;;0.20;0.20;;;;;;;15.14;69.04;97111.78;5055078;28;20051;-74
2023/07/21 02:03:19;;;;;;;0.20;0.20;;;;;;;15.09;69.35;97108.97;5071786;28;20044;-74
2023/07/21 02:05:48;;;;;;;0.38;0.38;;;;;;;15.20;69.20;97114.31;5072977;28;20049;-74
2023/07/21 02:08:16;;;;;;;0.20;0.20;;;;;;;15.25;69.01;97119.00;5054332;28;20048;-74
2023/07/21 02:10:43;;;;;;;0.20;0.20;;;;;;;15.30;68.62;97111.03;5072665;28;20044;-74
2023/07/21 02:13:21;;;;;;;0.30;0.30;;;;;;;15.12;69.43;97106.63;5052681;28;20051;-74
2023/07/21 02:15:49;;;;;;;0.40;0.40;;;;;;;14.96;69.50;97110.84;5054331;28;20044;-74
2023/07/21 02:18:17;;;;;;;0.63;0.63;;;;;;;14.75;70.26;97099.84;5057167;28;20048;-75
2023/07/21 02:20:45;;;;;;;0.10;0.10;;;;;;;14.89;69.78;97101.25;5061963;28;20280;-72
2023/07/21 02:23:13;;;;;;;0.30;0.30;;;;;;;15.07;68.89;97098.44;5058568;28;20043;-72
2023/07/21 02:25:41;;;;;;;0.30;0.30;;;;;;;15.22;68.34;97096.09;5060821;28;20453;-74
2023/07/21 02:28:09;;;;;;;0.28;0.28;;;;;;;15.13;68.63;97085.94;5053315;28;20493;-72
2023/07/21 02:30:39;;;;;;;0.10;0.10;;;;;;;14.93;69.28;97086.31;5071567;28;20383;-73
2023/07/21 02:33:07;;;;;;;0.32;0.32;;;;;;;15.04;69.03;97097.06;5054626;28;20060;-73
2023/07/21 02:35:35;;;;;;;0.40;0.40;;;;;;;15.25;68.32;97097.50;5071479;28;20051;-73
2023/07/21 02:38:05;;;;;;;0.40;0.40;;;;;;;15.06;68.78;97096.81;5053769;28;20048;-73
2023/07/21 02:40:32;;;;;;;0.35;0.35;;;;;;;15.05;69.06;97095.97;5071322;28;20040;-73
2023/07/21 02:43:00;;;;;;;0.30;0.30;;;;;;;14.94;69.25;97083.41;5069990;28;20111;-73
2023/07/21 02:45:28;;;;;;;0.38;0.38;;;;;;;14.86;69.74;97090.97;5071433;28;20131;-73
2023/07/21 02:47:57;;;;;;;0.43;0.43;;;;;;;14.76;70.08;97080.00;5071709;28;20041;-75
2023/07/21 02:50:26;;;;;;;0.20;0.20;;;;;;;14.78;70.19;97084.09;5052539;28;20063;-74
2023/07/21 02:52:54;;;;;;;0.10;0.10;;;;;;;14.78;70.09;97094.84;5072622;28;20893;-74
2023/07/21 02:55:22;;;;;;;0.30;0.30;;;;;;;14.84;69.60;97096.59;5054240;28;20109;-72
2023/07/21 02:57:51;;;;;;;0.20;0.20;;;;;;;14.88;69.40;97087.00;5052313;28;20052;-74
2023/07/21 03:00:22;;;;;;;0.22;0.22;;;;;;;14.88;69.50;97089.69;5053342;28;20040;-72
2023/07/21 03:03:03;;;;;;;0.57;0.57;;;;;;;14.88;69.64;97089.69;5053466;28;20090;-74
2023/07/21 03:05:31;;;;;;;0.30;0.30;;;;;;;14.88;69.71;97084.31;5052650;28;20144;-77
2023/07/21 03:07:59;;;;;;;0.30;0.30;;;;;;;15.03;69.42;97086.53;5055379;28;20087;-73
2023/07/21 03:10:27;;;;;;;0.20;0.20;;;;;;;15.00;69.13;97081.63;5073703;28;20040;-74
2023/07/21 03:12:55;;;;;;;0.08;0.08;;;;;;;14.92;69.55;97080.13;5053954;28;20422;-72
2023/07/21 03:15:27;;;;;;;0.38;0.38;;;;;;;14.97;69.17;97088.28;5076067;28;20039;-73
2023/07/21 03:18:00;;;;;;;0.20;0.20;;;;;;;14.91;69.24;97083.03;5054288;28;20499;-74
2023/07/21 03:20:32;;;;;;;0.30;0.30;;;;;;;14.92;69.46;97082.81;5054946;28;20132;-75
2023/07/21 03:23:02;;;;;;;0.30;0.30;;;;;;;14.96;69.36;97083.97;5051859;28;20040;-73
2023/07/21 03:25:31;;;;;;;0.38;0.38;;;;;;;14.91;69.37;97070.41;5071284;28;20124;-73
2023/07/21 03:27:59;;;;;;;0.30;0.30;;;;;;;15.03;69.08;97073.09;5051351;28;20041;-73
2023/07/21 03:30:26;;;;;;;0.17;0.17;;;;;;;14.94;69.24;97074.50;5051930;28;20036;-73
2023/07/21 03:33:02;;;;;;;0.32;0.32;;;;;;;14.86;69.51;97064.91;5051836;28;20041;-73
2023/07/21 03:35:35;;;;;;;0.40;0.40;;;;;;;14.83;69.66;97075.34;5052098;28;20048;-73
2023/07/21 03:38:03;;;;;;;0.30;0.30;;;;;;;14.61;70.50;97075.09;5053325;28;20048;-73
2023/07/21 03:40:31;;;;;;;0.32;0.32;;;;;;;14.47;71.16;97082.53;5052030;28;20044;-74
2023/07/21 03:42:58;;;;;;;0.13;0.13;;;;;;;14.44;71.21;97074.13;5070594;28;20408;-74
2023/07/21 03:45:27;;;;;;;0.43;0.43;;;;;;;14.52;71.05;97068.44;5052226;28;20123;-74
2023/07/21 03:47:57;;;;;;;0.52;0.52;;;;;;;14.73;70.32;97070.56;5053638;28;20036;-74
2023/07/21 03:50:25;;;;;;;0.30;0.30;;;;;;;14.86;69.91;97072.97;5051012;28;20052;-74
2023/07/21 03:52:55;;;;;;;0.32;0.32;;;;;;;14.87;69.70;97068.41;5050462;28;20414;-72
2023/07/21 03:55:23;;;;;;;0.22;0.22;;;;;;;15.14;68.53;97071.44;5051772;28;20041;-74
2023/07/21 03:57:51;;;;;;;0.25;0.25;;;;;;;14.61;70.43;97072.41;5051570;28;20086;-73
2023/07/21 04:00:20;;;;;;;0.30;0.30;;;;;;;14.79;70.01;97074.16;5051398;28;20076;-74
2023/07/21 04:02:47;;;;;;;0.30;0.30;;;;;;;14.87;69.91;97071.94;5050982;28;20568;-73
2023/07/21 04:05:15;;;;;;;0.30;0.30;;;;;;;14.78;70.25;97073.34;5051957;28;20059;-73
2023/07/21 04:07:43;;;;;;;0.30;0.30;;;;;;;14.68;70.80;97071.25;5050476;28;20110;-73
2023/07/21 04:10:13;;;;;;;0.40;0.40;;;;;;;14.86;70.51;97064.91;5051549;28;20778;-72
2023/07/21 04:12:41;;;;;;;0.20;0.20;;;;;;;14.97;70.01;97066.78;5052152;28;20131;-72
2023/07/21 04:15:09;;;;;;;0.25;0.25;;;;;;;15.02;70.15;97060.72;5050622;28;20040;-73
2023/07/21 04:17:37;;;;;;;0.30;0.30;;;;;;;15.03;70.46;97065.03;5069208;28;20045;-72
2023/07/21 04:20:09;;;;;;;0.13;0.13;;;;;;;15.09;70.22;97063.25;5068664;28;20468;-74
2023/07/21 04:22:37;;;;;;;0.30;0.30;;;;;;;15.10;70.02;97054.16;5051840;28;20044;-74
2023/07/21 04:25:06;;;;;;;0.45;0.45;;;;;;;15.20;69.81;97051.66;5049644;28;20120;-73
2023/07/21 04:27:36;;;;;;;0.40;0.40;;;;;;;15.18;69.72;97051.91;5052345;28;20139;-74
2023/07/21 04:30:07;;;;;;;0.35;0.35;;;;;;;15.24;69.21;97048.28;5049575;28;20052;-77
2023/07/21 04:32:37;;;;;;;0.25;0.25;;;;;;;15.22;69.65;97052.25;5058150;28;20052;-74
2023/07/21 04:35:08;;;;;;;0.10;0.10;;;;;;;15.19;69.36;97050.03;5050315;28;20464;-75
2023/07/21 04:37:38;;;;;;;0.30;0.30;;;;;;;15.23;69.38;97048.50;5052304;28;20049;-75
2023/07/21 04:40:07;;;;;;;0.40;0.40;;;;;;;15.32;68.86;97049.78;5052294;28;20040;-76
2023/07/21 04:42:39;;;;;;;0.40;0.40;;;;;;;15.40;68.89;97049.41;5050276;28;20091;-74
2023/07/21 04:45:11;;;;;;;0.03;0.03;;;;;;;15.43;68.44;97047.06;5048979;28;20408;-75
2023/07/21 04:47:44;;;;;;;0.30;0.30;;;;;;;15.42;68.38;97041.91;5050981;28;20065;-75
2023/07/21 04:50:20;;;;;;;0.30;0.30;;;;;;;15.32;68.91;97044.41;5051219;28;20049;-73
2023/07/21 04:52:48;;;;;;;0.30;0.30;;;;;;;15.12;69.43;97041.28;5051118;28;20067;-74
2023/07/21 04:55:16;;;;;;;0.30;0.30;;;;;;;15.29;69.05;97045.69;5050392;28;20032;-74
2023/07/21 04:57:45;;;;;;;0.28;0.28;;;;;;;15.35;69.02;97031.31;5050285;28;20053;-74
2023/07/21 05:00:15;;;;;;;0.25;0.25;;;;;;;15.38;68.92;97030.00;5067400;28;20054;-74
2023/07/21 05:02:43;;;;;;;0.30;0.30;;;;;;;15.45;68.79;97030.69;5068553;28;20094;-74
2023/07/21 05:05:11;;;;;;;0.32;0.32;;;;;;;15.53;68.68;97022.22;5050425;28;20052;-73
2023/07/21 05:07:45;;;;;;;0.32;0.32;;;;;;;15.59;68.47;97023.97;5049520;28;20068;-73
2023/07/21 05:10:13;;;;;;;0.20;0.20;;;;;;;15.55;68.57;97019.34;5069285;28;20115;-75
2023/07/21 05:12:42;;;;;;;0.30;0.30;;;;;;;15.62;68.46;97012.75;5050373;28;20103;-73
2023/07/21 05:15:35;;;;;;;0.30;0.30;;;;;;;15.71;67.91;97011.28;5049616;28;20050;-74
2023/07/21 05:18:25;;;;;;;0.20;0.20;;;;;;;15.71;68.05;97013.16;5050944;28;20048;-74
2023/07/21 05:21:03;;;;;;;0.35;0.35;;;;;;;15.66;68.38;97013.91;5053219;28;20040;-74
2023/07/21 05:23:42;;;;;;;0.20;0.20;;;;;;;15.89;67.98;97010.25;5073327;28;20131;-72
2023/07/21 05:26:19;;;;;;;0.30;0.30;;;;;;;15.79;68.56;97004.69;5054828;28;20063;-73
2023/07/21 05:28:49;;;;;;;0.30;0.30;;;;;;;15.66;68.96;97016.59;5054116;28;20463;-74
2023/07/21 05:31:24;;;;;;;0.30;0.30;;;;;;;15.80;68.23;97011.72;5053996;28;20489;-74
2023/07/21 05:34:00;;;;;;;0.22;0.22;;;;;;;15.74;68.58;97015.38;5054274;28;20036;-73
2023/07/21 05:36:29;;;;;;;0.25;0.25;;;;;;;15.80;68.50;97011.72;5053225;28;20044;-73
2023/07/21 05:38:57;;;;;;;0.20;0.20;;;;;;;15.91;68.22;97018.09;5049679;28;20044;-73
2023/07/21 05:41:27;;;;;;;0.10;0.10;;;;;;;15.84;68.75;97018.25;5053654;28;20424;-73
2023/07/21 05:43:54;;;;;;;0.35;0.35;;;;;;;15.91;68.59;97008.16;5054054;28;20045;-74
2023/07/21 05:46:24;;;;;;;0.30;0.30;;;;;;;16.02;67.94;97001.88;5053215;28;20501;-73
2023/07/21 05:48:57;;;;;;;0.30;0.30;;;;;;;16.20;67.50;97006.19;5053532;28;20048;-73
2023/07/21 05:51:25;;;;;;;0.30;0.30;;;;;;;16.30;67.21;97005.56;5071944;28;20033;-73
2023/07/21 05:53:59;;;;;;;0.20;0.20;;;;;;;16.37;66.46;97003.53;5053027;28;20121;-74
2023/07/21 05:56:29;;;;;;;0.40;0.40;;;;;;;16.35;66.78;97006.47;5053975;28;20036;-74
2023/07/21 05:59:06;;;;;;;0.30;0.30;;;;;;;16.42;66.56;97006.28;5054178;28;20070;-75
2023/07/21 06:01:37;;;;;;;0.30;0.30;;;;;;;16.49;66.36;97006.94;5072955;28;20378;-73
2023/07/21 06:04:05;;;;;;;0.32;0.32;;;;;;;16.59;65.70;97008.97;5052532;28;20041;-73
2023/07/21 06:06:34;;;;;;;0.38;0.38;;;;;;;16.65;65.46;97008.00;5052224;28;20036;-73
2023/07/21 06:09:17;;;;;;;0.20;0.20;;;;;;;16.70;65.33;97005.41;5051653;28;20044;-74
2023/07/21 06:11:55;;;;;;;0.30;0.30;;;;;;;16.79;65.15;96995.81;5053677;28;20137;-73
2023/07/21 06:14:23;;;;;;;0.30;0.30;;;;;;;16.90;65.54;97002.97;5071654;28;20142;-74
2023/07/21 06:16:59;;;;;;;0.20;0.20;;;;;;;16.99;64.54;97001.47;5053964;28;20055;-74
2023/07/21 06:19:27;;;;;;;0.20;0.20;;;;;;;17.06;64.31;97004.78;5054100;28;20044;-73
2023/07/21 06:21:55;;;;;;;0.20;0.20;;;;;;;17.19;64.06;96987.44;5053134;28;20068;-74
2023/07/21 06:24:23;;;;;;;0.28;0.28;;;;;;;17.23;63.70;96992.06;5072264;28;20044;-73
2023/07/21 06:26:51;;;;;;;0.28;0.28;;;;;;;17.23;63.59;97002.06;5053339;28;20052;-73
2023/07/21 06:29:20;;;;;;;0.25;0.25;;;;;;;17.15;63.79;96989.81;5053326;28;20044;-74
2023/07/21 06:31:49;;;;;;;0.30;0.30;;;;;;;17.17;63.86;96992.25;5051919;28;20044;-74
2023/07/21 06:34:38;;;;;;;0.20;0.20;;;;;;;17.24;63.64;96991.00;5053206;28;20425;-74
2023/07/21 06:37:17;;;;;;;0.20;0.20;;;;;;;17.31;63.40;96984.59;5052272;28;20182;-73
2023/07/21 06:40:09;;;;;;;0.20;0.20;;;;;;;17.46;62.67;96990.97;5051972;28;20044;-73
2023/07/21 06:42:55;;;;;;;0.22;0.22;;;;;;;17.58;62.68;96994.34;5071128;28;20617;-74
2023/07/21 06:45:40;;;;;;;0.30;0.30;;;;;;;17.75;62.26;96997.00;5068619;28;20424;-73
2023/07/21 06:48:42;;;;;;;0.20;0.20;;;;;;;17.78;62.08;96987.56;4998471;28;20049;-74
2023/07/21 06:51:15;;;;;;;0.20;0.20;;;;;;;17.91;62.01;96987.16;5040739;28;20064;-73
2023/07/21 06:53:43;;;;;;;0.22;0.22;;;;;;;18.04;60.92;96981.34;5052173;28;20049;-74
2023/07/21 06:56:13;;;;;;;0.20;0.20;;;;;;;18.14;60.73;96994.09;5053552;28;20147;-74
2023/07/21 06:58:43;;;;;;;0.50;0.50;;;;;;;18.23;60.45;96993.38;5047105;28;20072;-74
2023/07/21 07:01:10;;;;;;;0.20;0.20;;;;;;;18.33;60.24;96987.22;5052175;28;20133;-74
2023/07/21 07:03:38;;;;;;;0.30;0.30;;;;;;;18.45;59.94;96987.88;5069945;28;20041;-74
2023/07/21 07:06:06;;;;;;;0.30;0.30;;;;;;;18.55;59.82;96977.13;5069445;28;20378;-74
2023/07/21 07:08:37;;;;;;;0.35;0.35;;;;;;;18.67;58.94;96983.19;5070359;28;20037;-74
2023/07/21 07:11:05;;;;;;;0.30;0.30;;;;;;;18.77;58.57;96985.13;5051364;28;20094;-74
2023/07/21 07:13:32;;;;;;;0.28;0.28;;;;;;;18.89;57.97;96984.94;5053129;28;20044;-74
2023/07/21 07:16:00;;;;;;;0.20;0.20;;;;;;;18.91;57.08;96988.97;5071367;28;20093;-74
2023/07/21 07:18:28;;;;;;;0.13;0.13;;;;;;;18.94;57.30;96985.75;5052179;28;20373;-74
2023/07/21 07:20:56;;;;;;;0.30;0.30;;;;;;;19.03;57.76;96986.88;5070679;28;20128;-74
2023/07/21 07:23:24;;;;;;;0.20;0.20;;;;;;;19.12;56.73;96979.06;5051518;28;20041;-74
2023/07/21 07:25:54;;;;;;;0.20;0.20;;;;;;;19.21;56.46;96976.66;5051250;28;20154;-74
2023/07/21 07:28:22;;;;;;;0.30;0.30;;;;;;;19.29;56.54;96973.47;5052619;28;20036;-73
2023/07/21 07:30:50;;;;;;;0.22;0.22;;;;;;;19.41;56.32;96977.53;5071010;28;20063;-74
2023/07/21 07:33:18;;;;;;;0.20;0.20;;;;;;;19.46;55.15;96978.66;5070761;28;20041;-73
2023/07/21 07:35:49;;;;;;;0.20;0.20;;;;;;;19.43;55.46;96988.94;5070315;28;20051;-74
2023/07/21 07:38:23;;;;;;;0.10;0.03;;;;;;;19.41;55.17;96993.00;5069410;28;20413;-74
2023/07/21 07:40:51;;;;;;;0.10;0.10;;;;;;;19.53;55.07;96990.06;5070526;28;20447;-74
2023/07/21 07:43:20;;;;;;;0.20;0.20;;;;;;;19.75;54.69;96987.97;5067660;28;20529;-74
2023/07/21 07:45:48;;;;;;;0.30;0.30;;;;;;;19.93;53.96;96990.19;5069506;28;20048;-74
2023/07/21 07:48:16;;;;;;;0.17;0.17;;;;;;;20.00;54.13;96990.72;5068452;28;20089;-74
2023/07/21 07:50:44;;;;;;;0.32;0.32;;;;;;;20.16;53.50;96986.91;5075709;28;20072;-74
2023/07/21 07:53:12;;;;;;;0.30;0.30;;;;;;;20.27;53.60;96989.63;5079101;28;20048;-76
2023/07/21 07:55:41;;;;;;;0.25;0.25;;;;;;;20.46;52.51;96996.16;5076589;28;20466;-75
2023/07/21 07:58:09;;;;;;;0.13;0.13;;;;;;;20.52;52.07;96989.66;5078727;28;20060;-74
2023/07/21 08:00:41;;;;;;;0.20;0.20;;;;;;;20.52;52.66;96981.53;5070199;28;20122;-73
2023/07/21 08:03:10;;;;;;;0.20;0.20;;;;;;;20.38;53.25;96980.44;5069492;28;20048;-75
2023/07/21 08:05:40;;;;;;;0.20;0.20;;;;;;;20.42;53.02;96974.22;5070213;28;20045;-76
2023/07/21 08:08:09;;;;;;;0.10;0.10;;;;;;;20.47;53.05;96976.09;5070812;28;20474;-75
2023/07/21 08:10:41;;;;;;;0.20;0.20;;;;;;;20.57;52.92;96970.66;5069009;28;20051;-77
2023/07/21 08:13:09;;;;;;;0.40;0.40;;;;;;;20.70;51.80;96958.44;5068685;28;20094;-74
2023/07/21 08:15:41;;;;;;;0.17;0.17;;;;;;;20.68;52.13;96953.28;5069218;28;20098;-76
2023/07/21 08:18:09;;;;;;;0.20;0.20;;;;;;;20.79;52.17;96954.88;5069952;28;20066;-77
2023/07/21 08:20:37;;;;;;;0.32;0.32;;;;;;;21.06;51.36;96959.16;5069391;28;20048;-75
2023/07/21 08:23:05;;;;;;;0.20;0.20;;;;;;;21.23;49.93;96948.78;5068599;28;20071;-76
2023/07/21 08:25:53;;;;;;;0.20;0.20;;;;;;;21.47;48.98;96966.06;5069886;28;20041;-76
2023/07/21 08:28:20;;;;;;;0.20;0.20;;;;;;;21.69;48.92;96973.81;5068740;28;20124;-75
2023/07/21 08:30:49;;;;;;;0.20;0.20;;;;;;;21.80;49.88;96974.56;5069275;28;20147;-75
2023/07/21 08:33:26;;;;;;;0.20;0.20;;;;;;;21.83;50.14;96979.41;5069510;28;20041;-75
2023/07/21 08:35:53;;;;;;;0.22;0.22;;;;;;;21.86;50.25;96973.44;5051772;28;20064;-75
2023/07/21 08:38:21;;;;;;;0.20;0.20;;;;;;;21.88;50.16;96979.41;5065501;28;20044;-75
2023/07/21 08:40:50;;;;;;;0.20;0.20;;;;;;;21.91;49.07;96978.81;5049617;28;20063;-75
2023/07/21 08:43:18;;;;;;;0.20;0.20;;;;;;;22.07;49.14;96983.09;5069255;28;20123;-75
2023/07/21 08:45:49;;;;;;;0.28;0.28;;;;;;;21.99;48.35;96978.28;5068291;28;20047;-75
2023/07/21 08:48:17;;;;;;;0.22;0.22;;;;;;;21.73;48.01;96969.44;5069348;28;20490;-75
2023/07/21 08:50:48;;;;;;;0.35;0.35;;;;;;;21.76;48.48;96974.31;5066475;28;20056;-75
2023/07/21 08:53:16;;;;;;;0.13;0.13;;;;;;;21.62;48.12;96976.00;5069480;28;20090;-75
2023/07/21 08:55:44;;;;;;;0.20;0.20;;;;;;;21.75;47.41;96967.25;5068868;28;20135;-75
2023/07/21 08:58:12;;;;;;;0.17;0.17;;;;;;;21.90;47.49;96969.06;5069962;28;20402;-75
2023/07/21 09:00:39;;;;;;;0.20;0.20;;;;;;;21.90;46.91;96969.88;5065586;28;20063;-75
2023/07/21 09:03:09;;;;;;;0.10;0.10;;;;;;;21.87;46.96;96973.16;5068743;28;20090;-75
2023/07/21 09:05:36;;;;;;;0.20;0.20;;;;;;;21.80;46.75;96974.56;5064784;28;20123;-75
2023/07/21 09:08:05;;;;;;;0.10;0.10;;;;;;;21.68;47.40;96974.09;5068894;28;20048;-75
2023/07/21 09:10:34;;;;;;;0.20;0.20;;;;;;;21.60;46.86;96979.00;5068036;28;20078;-75
2023/07/21 09:13:03;;;;;;;0.20;0.20;;;;;;;21.65;46.89;96985.50;5049648;28;20055;-75
2023/07/21 09:15:30;;;;;;;0.10;0.10;;;;;;;21.60;46.60;96986.34;5069592;28;20119;-75
2023/07/21 09:18:00;;;;;;;0.30;0.30;;;;;;;21.34;46.69;96985.66;5068610;28;20098;-75
2023/07/21 09:20:31;;;;;;;0.22;0.22;;;;;;;21.36;47.44;96988.09;5065645;28;20416;-75
2023/07/21 09:22:59;;;;;;;0.20;0.20;;;;;;;21.27;47.51;96985.16;5067158;28;20127;-75
2023/07/21 09:25:27;;;;;;;0.30;0.30;;;;;;;21.29;47.27;96985.69;5068370;28;20041;-75
2023/07/21 09:27:57;;;;;;;0.30;0.30;;;;;;;21.32;47.50;96982.41;5074052;28;20903;-75
2023/07/21 09:30:25;;;;;;;0.20;0.20;;;;;;;21.27;47.47;96985.16;5073431;28;20086;-75
2023/07/21 09:32:54;;;;;;;0.10;0.10;;;;;;;21.13;47.69;96989.53;5070520;28;20045;-76
2023/07/21 09:35:22;;;;;;;0.13;0.13;;;;;;;21.11;47.78;96989.78;5069310;28;20032;-74
2023/07/21 09:37:52;;;;;;;0.20;0.20;;;;;;;21.01;47.83;96989.00;5068702;28;20064;-73
2023/07/21 09:40:27;;;;;;;0.10;0.10;;;;;;;20.89;48.24;97000.16;5074208;28;20068;-74
2023/07/21 09:42:55;;;;;;;0.17;0.17;;;;;;;20.77;48.78;97003.16;5074041;28;20048;-74
2023/07/21 09:45:25;;;;;;;0.10;0.10;;;;;;;20.74;49.06;97000.22;5071343;28;20449;-74
2023/07/21 09:47:53;;;;;;;0.20;0.20;;;;;;;20.71;48.90;97008.88;5069555;28;20094;-74
2023/07/21 09:50:21;;;;;;;0.20;0.20;;;;;;;20.68;48.98;97006.72;5051970;28;20056;-74
2023/07/21 09:52:54;;;;;;;0.20;0.20;;;;;;;20.70;48.97;97004.53;5069513;28;20048;-74
2023/07/21 09:55:23;;;;;;;0.15;0.15;;;;;;;20.60;48.94;97008.09;5069175;28;20090;-74
2023/07/21 09:57:51;;;;;;;0.20;0.20;;;;;;;20.52;49.49;97006.75;5067810;28;21605;-76
2023/07/21 10:00:20;;;;;;;0.20;0.20;;;;;;;20.53;49.93;97007.56;5067253;28;20119;-73
2023/07/21 10:02:50;;;;;;;0.22;0.22;;;;;;;20.59;49.87;97003.75;5068180;28;20063;-74
2023/07/21 10:05:18;;;;;;;0.28;0.28;;;;;;;20.63;49.94;97007.56;5069009;28;20094;-74
2023/07/21 10:07:51;;;;;;;0.22;0.22;;;;;;;20.38;50.61;97005.66;5071026;28;20059;-73
2023/07/21 10:10:19;;;;;;;0.38;0.38;;;;;;;20.43;50.66;97018.41;5074107;28;20389;-74
2023/07/21 10:12:50;;;;;;;0.13;0.13;;;;;;;20.40;50.54;97019.75;5073153;28;20041;-75
2023/07/21 10:15:20;;;;;;;0.20;0.20;;;;;;;20.44;50.94;97023.56;5074170;28;20033;-73
2023/07/21 10:17:58;;;;;;;0.20;0.20;;;;;;;20.46;50.82;97032.22;5072412;28;20056;-73
2023/07/21 10:20:43;;;;;;;0.15;0.15;;;;;;;20.47;50.98;97035.75;5072383;28;20051;-73
2023/07/21 10:23:14;;;;;;;0.30;0.30;;;;;;;20.23;51.67;97029.22;5071381;28;20513;-73
2023/07/21 10:25:56;;;;;;;0.30;0.30;;;;;;;20.16;52.18;97033.00;5071061;28;20094;-73
2023/07/21 10:28:26;;;;;;;0.20;0.20;;;;;;;20.19;52.44;97039.78;5070942;28;20047;-73
2023/07/21 10:30:54;;;;;;;0.40;0.40;;;;;;;20.17;52.46;97055.50;5072393;28;20104;-74
2023/07/21 10:33:29;;;;;;;0.20;0.20;;;;;;;20.10;53.13;97046.81;5075663;28;20051;-74
2023/07/21 10:36:13;;;;;;;0.10;0.10;;;;;;;20.10;52.98;97042.22;5071380;28;20477;-73
2023/07/21 10:38:43;;;;;;;0.30;0.30;;;;;;;20.01;53.32;97045.72;5073345;28;20068;-74
2023/07/21 10:41:11;;;;;;;0.05;0.05;;;;;;;19.99;53.16;97045.19;5073302;28;20426;-74
2023/07/21 10:43:38;;;;;;;0.10;0.10;;;;;;;19.95;53.13;97046.78;5070530;28;20409;-74
2023/07/21 10:46:06;;;;;;;0.20;0.20;;;;;;;19.94;53.38;97056.81;5071847;28;20640;-75
2023/07/21 10:48:34;;;;;;;0.20;0.20;;;;;;;19.81;53.20;97042.97;5071630;28;20037;-74
2023/07/21 10:51:01;;;;;;;0.00;0.00;;;;;;;19.84;52.66;97042.41;5070962;28;20371;-74
2023/07/21 10:53:29;;;;;;;0.20;0.20;;;;;;;19.86;52.72;97030.25;5071851;28;20456;-74
2023/07/21 10:56:05;;;;;;;0.32;0.32;;;;;;;19.68;53.02;97034.25;5070811;28;20123;-74
2023/07/21 10:58:33;;;;;;;0.20;0.20;;;;;;;19.86;52.86;97030.25;5072169;28;20123;-74
2023/07/21 11:01:01;;;;;;;0.30;0.30;;;;;;;19.84;52.64;97023.47;5070488;28;20040;-74
2023/07/21 11:03:29;;;;;;;0.30;0.30;;;;;;;19.91;52.33;97029.44;5070112;28;20044;-75
2023/07/21 11:05:57;;;;;;;0.20;0.20;;;;;;;19.92;52.60;97021.06;5069732;28;20044;-74
2023/07/21 11:08:28;;;;;;;0.22;0.22;;;;;;;20.07;52.18;97020.25;5071897;28;20135;-75
2023/07/21 11:10:57;;;;;;;0.20;0.20;;;;;;;20.21;51.78;97007.00;5073639;28;20075;-74
2023/07/21 11:13:25;;;;;;;0.22;0.22;;;;;;;20.15;51.54;97015.09;5070536;28;20041;-74
2023/07/21 11:15:54;;;;;;;0.20;0.20;;;;;;;20.26;51.34;97018.63;5070522;28;20474;-74
2023/07/21 11:18:22;;;;;;;0.05;0.05;;;;;;;20.29;51.28;97009.16;5070379;28;20416;-74
2023/07/21 11:20:51;;;;;;;0.20;0.20;;;;;;;20.41;51.25;97005.13;5070366;28;20044;-74
2023/07/21 11:23:18;;;;;;;0.20;0.20;;;;;;;20.36;51.22;97004.28;5070448;28;20044;-74
2023/07/21 11:26:02;;;;;;;0.20;0.20;;;;;;;20.32;50.96;97012.16;5071786;28;20119;-75
2023/07/21 11:28:30;;;;;;;0.20;0.20;;;;;;;20.23;51.61;97015.66;5069531;28;20037;-75
2023/07/21 11:30:58;;;;;;;0.10;0.10;;;;;;;20.23;51.32;97012.97;5070259;28;20040;-76
2023/07/21 11:33:39;;;;;;;0.30;0.30;;;;;;;20.10;51.43;97015.13;5070768;28;20068;-74
2023/07/21 11:36:17;;;;;;;0.20;0.20;;;;;;;19.98;51.95;97024.56;5069836;28;20066;-74
2023/07/21 11:38:58;;;;;;;0.13;0.13;;;;;;;19.92;51.86;97012.94;5070234;28;20046;-77
2023/07/21 11:41:51;;;;;;;0.15;0.15;;;;;;;20.05;51.75;97012.38;5071487;28;20119;-74
2023/07/21 11:44:22;;;;;;;0.10;0.10;;;;;;;20.11;52.54;97007.81;5053577;28;20135;-74
2023/07/21 11:46:58;;;;;;;0.20;0.20;;;;;;;20.17;52.18;97014.84;5070177;28;20045;-74
2023/07/21 11:49:28;;;;;;;0.22;0.22;;;;;;;20.24;52.24;97020.81;5070399;28;20501;-74